Overview Statistics Trail Chart Weather Telemetry Raw packets
 

This is the latest recevied weather packets stored in our database for station/object KA1JKB. If no packets are shown the sender has not sent any weather packets the latest 10 day(s).

<< 9 10 11 12 13 14 15 >>
Time Temp. Humidity Pressure Rain* Wind** Luminosity Snow
1788387586 32.78° C 65% 1010.6 hPa 0 mm - 205 W/m² -
1788387285 32.78° C 64% 1010.6 hPa 0 mm - 131 W/m² -
1788386982 32.22° C 65% 1010.6 hPa 0 mm - 248 W/m² -
1788386681 32.22° C 65% 1010.8 hPa 0 mm - 244 W/m² -
1788386376 32.78° C 66% 1010.6 hPa 0 mm - 201 W/m² -
1788386072 32.78° C 64% 1010.4 hPa 0 mm - 307 W/m² -
1788385768 32.22° C 66% 1010.6 hPa 0 mm - 318 W/m² -
1788385467 32.78° C 67% 1010.5 hPa 0 mm - 108 W/m² -
1788385166 32.78° C 65% 1010.7 hPa 0 mm - 206 W/m² -
1788384863 32.78° C 63% 1010.7 hPa 0 mm - 363 W/m² -
1788384561 32.78° C 65% 1011 hPa 0 mm - 371 W/m² -
1788384258 32.22° C 65% 1010.7 hPa 0 mm - 350 W/m² -
1788383954 32.78° C 65% 1010.8 hPa 0 mm - 253 W/m² -
1788383650 32.78° C 64% 1011.2 hPa 0 mm - 301 W/m² -
1788383345 32.78° C 66% 1011 hPa 0 mm - 353 W/m² -
1788383044 32.78° C 65% 1011 hPa 0 mm - 369 W/m² -
1788382743 32.78° C 64% 1011.3 hPa 0 mm - 340 W/m² -
1788382437 33.89° C 64% 1011.2 hPa 0 mm - 265 W/m² -
1788382133 33.33° C 63% 1011.2 hPa 0 mm - 460 W/m² -
1788381833 33.33° C 63% 1011.3 hPa 0 mm - 460 W/m² -
1788381528 33.33° C 64% 1011.5 hPa 0 mm - 472 W/m² -
1788381224 32.78° C 64% 1011.5 hPa 0 mm - 490 W/m² -
1788380918 32.78° C 65% 1011.7 hPa 0 mm - 405 W/m² -
1788380614 33.33° C 65% 1011.7 hPa 0 mm - 346 W/m² -
1788380310 33.89° C 62% 1011.8 hPa 0 mm - 563 W/m² -

* Rain latest hour (hover to see other rain measurements)
** Current wind speed in m/s (hover to see current wind gust speed)